sensor_id;sensor_type;location;lat;lon;timestamp;P1;durP1;ratioP1;P2;durP2;ratioP2
60372;SDS011;46216;52.220;5.134;2022-09-09T00:04:36;1.50;;;1.13;;
60372;SDS011;46216;52.220;5.134;2022-09-09T00:09:46;4.88;;;1.48;;
60372;SDS011;46216;52.220;5.134;2022-09-09T00:12:22;2.10;;;1.30;;
60372;SDS011;46216;52.220;5.134;2022-09-09T00:15:03;4.80;;;1.50;;
60372;SDS011;46216;52.220;5.134;2022-09-09T00:17:38;2.67;;;1.33;;
60372;SDS011;46216;52.220;5.134;2022-09-09T00:20:26;4.13;;;1.90;;
60372;SDS011;46216;52.220;5.134;2022-09-09T00:22:59;2.58;;;1.48;;
60372;SDS011;46216;52.220;5.134;2022-09-09T00:25:49;1.95;;;1.52;;
60372;SDS011;46216;52.220;5.134;2022-09-09T00:28:48;3.67;;;1.85;;
60372;SDS011;46216;52.220;5.134;2022-09-09T00:31:25;3.63;;;1.90;;
60372;SDS011;46216;52.220;5.134;2022-09-09T00:33:53;3.45;;;1.60;;
60372;SDS011;46216;52.220;5.134;2022-09-09T00:36:23;4.88;;;1.98;;
60372;SDS011;46216;52.220;5.134;2022-09-09T00:38:52;3.70;;;2.00;;
60372;SDS011;46216;52.220;5.134;2022-09-09T00:57:59;5.53;;;2.47;;
60372;SDS011;46216;52.220;5.134;2022-09-09T01:00:26;5.75;;;2.50;;
60372;SDS011;46216;52.220;5.134;2022-09-09T01:08:39;3.70;;;2.60;;
60372;SDS011;46216;52.220;5.134;2022-09-09T01:11:20;5.38;;;2.70;;
60372;SDS011;46216;52.220;5.134;2022-09-09T01:13:49;5.55;;;2.85;;
60372;SDS011;46216;52.220;5.134;2022-09-09T01:16:23;7.93;;;2.97;;
60372;SDS011;46216;52.220;5.134;2022-09-09T01:18:51;6.50;;;2.92;;
60372;SDS011;46216;52.220;5.134;2022-09-09T01:21:39;6.38;;;3.42;;
60372;SDS011;46216;52.220;5.134;2022-09-09T01:24:22;4.57;;;2.90;;
60372;SDS011;46216;52.220;5.134;2022-09-09T01:26:56;5.38;;;3.22;;
60372;SDS011;46216;52.220;5.134;2022-09-09T01:29:25;5.35;;;3.42;;
60372;SDS011;46216;52.220;5.134;2022-09-09T01:31:52;6.30;;;3.65;;
60372;SDS011;46216;52.220;5.134;2022-09-09T01:34:17;6.55;;;3.67;;
60372;SDS011;46216;52.220;5.134;2022-09-09T01:36:45;8.73;;;4.10;;
60372;SDS011;46216;52.220;5.134;2022-09-09T01:39:16;6.35;;;3.70;;
60372;SDS011;46216;52.220;5.134;2022-09-09T01:41:41;5.88;;;3.67;;
60372;SDS011;46216;52.220;5.134;2022-09-09T01:44:07;4.72;;;3.75;;
60372;SDS011;46216;52.220;5.134;2022-09-09T01:46:34;6.90;;;4.05;;
60372;SDS011;46216;52.220;5.134;2022-09-09T01:48:59;7.45;;;3.75;;
60372;SDS011;46216;52.220;5.134;2022-09-09T01:51:26;6.93;;;4.18;;
60372;SDS011;46216;52.220;5.134;2022-09-09T01:53:52;7.40;;;4.07;;
60372;SDS011;46216;52.220;5.134;2022-09-09T01:56:24;8.27;;;4.47;;
60372;SDS011;46216;52.220;5.134;2022-09-09T01:59:15;6.13;;;4.40;;
60372;SDS011;46216;52.220;5.134;2022-09-09T02:04:37;8.13;;;4.65;;
60372;SDS011;46216;52.220;5.134;2022-09-09T02:07:06;6.82;;;4.47;;
60372;SDS011;46216;52.220;5.134;2022-09-09T02:09:44;7.80;;;4.88;;
60372;SDS011;46216;52.220;5.134;2022-09-09T02:12:16;7.18;;;4.85;;
60372;SDS011;46216;52.220;5.134;2022-09-09T02:14:47;8.45;;;4.88;;
60372;SDS011;46216;52.220;5.134;2022-09-09T02:17:19;7.97;;;5.35;;
60372;SDS011;46216;52.220;5.134;2022-09-09T02:19:57;8.68;;;5.43;;
60372;SDS011;46216;52.220;5.134;2022-09-09T02:22:28;6.30;;;5.28;;
60372;SDS011;46216;52.220;5.134;2022-09-09T02:24:59;9.10;;;5.55;;
60372;SDS011;46216;52.220;5.134;2022-09-09T02:27:25;8.77;;;6.55;;
60372;SDS011;46216;52.220;5.134;2022-09-09T02:29:51;8.25;;;5.90;;
60372;SDS011;46216;52.220;5.134;2022-09-09T02:32:19;9.65;;;6.43;;
60372;SDS011;46216;52.220;5.134;2022-09-09T02:34:48;7.55;;;6.43;;
60372;SDS011;46216;52.220;5.134;2022-09-09T02:37:19;9.27;;;6.60;;
60372;SDS011;46216;52.220;5.134;2022-09-09T02:39:46;8.15;;;6.63;;
60372;SDS011;46216;52.220;5.134;2022-09-09T02:42:12;7.72;;;6.55;;
60372;SDS011;46216;52.220;5.134;2022-09-09T02:44:39;9.65;;;7.20;;
60372;SDS011;46216;52.220;5.134;2022-09-09T02:53:10;9.90;;;7.57;;
60372;SDS011;46216;52.220;5.134;2022-09-09T02:55:45;8.70;;;7.32;;
60372;SDS011;46216;52.220;5.134;2022-09-09T02:58:13;8.88;;;7.30;;
60372;SDS011;46216;52.220;5.134;2022-09-09T03:00:48;9.52;;;7.70;;
60372;SDS011;46216;52.220;5.134;2022-09-09T03:03:15;9.48;;;7.55;;
60372;SDS011;46216;52.220;5.134;2022-09-09T03:05:44;10.02;;;7.40;;
60372;SDS011;46216;52.220;5.134;2022-09-09T03:08:11;10.13;;;7.55;;
60372;SDS011;46216;52.220;5.134;2022-09-09T03:10:38;8.80;;;7.32;;
60372;SDS011;46216;52.220;5.134;2022-09-09T03:13:04;8.90;;;6.45;;
60372;SDS011;46216;52.220;5.134;2022-09-09T03:15:30;8.98;;;7.28;;
60372;SDS011;46216;52.220;5.134;2022-09-09T03:17:57;9.07;;;6.80;;
60372;SDS011;46216;52.220;5.134;2022-09-09T03:20:27;10.13;;;7.65;;
60372;SDS011;46216;52.220;5.134;2022-09-09T03:22:54;8.43;;;7.18;;
60372;SDS011;46216;52.220;5.134;2022-09-09T03:25:21;8.18;;;7.07;;
60372;SDS011;46216;52.220;5.134;2022-09-09T03:27:52;8.82;;;7.35;;
60372;SDS011;46216;52.220;5.134;2022-09-09T03:30:23;8.95;;;7.40;;
60372;SDS011;46216;52.220;5.134;2022-09-09T03:32:50;8.25;;;6.65;;
60372;SDS011;46216;52.220;5.134;2022-09-09T03:35:16;9.18;;;7.03;;
60372;SDS011;46216;52.220;5.134;2022-09-09T03:37:42;8.98;;;7.15;;
60372;SDS011;46216;52.220;5.134;2022-09-09T03:40:07;11.98;;;7.55;;
60372;SDS011;46216;52.220;5.134;2022-09-09T03:42:35;9.95;;;7.32;;
60372;SDS011;46216;52.220;5.134;2022-09-09T03:45:02;10.35;;;7.05;;
60372;SDS011;46216;52.220;5.134;2022-09-09T03:47:28;9.85;;;7.15;;
60372;SDS011;46216;52.220;5.134;2022-09-09T03:49:54;8.65;;;6.88;;
60372;SDS011;46216;52.220;5.134;2022-09-09T03:52:19;9.05;;;6.95;;
60372;SDS011;46216;52.220;5.134;2022-09-09T03:54:46;10.45;;;7.13;;
60372;SDS011;46216;52.220;5.134;2022-09-09T03:57:13;9.88;;;7.00;;
60372;SDS011;46216;52.220;5.134;2022-09-09T03:59:41;10.70;;;7.28;;
60372;SDS011;46216;52.220;5.134;2022-09-09T04:02:07;10.02;;;6.95;;
60372;SDS011;46216;52.220;5.134;2022-09-09T04:04:32;8.23;;;6.78;;
60372;SDS011;46216;52.220;5.134;2022-09-09T04:06:58;9.52;;;7.10;;
60372;SDS011;46216;52.220;5.134;2022-09-09T04:09:23;8.20;;;6.28;;
60372;SDS011;46216;52.220;5.134;2022-09-09T04:11:48;10.63;;;6.90;;
60372;SDS011;46216;52.220;5.134;2022-09-09T04:14:14;11.50;;;7.38;;
60372;SDS011;46216;52.220;5.134;2022-09-09T04:16:40;8.77;;;6.63;;
60372;SDS011;46216;52.220;5.134;2022-09-09T04:19:09;9.13;;;6.72;;
60372;SDS011;46216;52.220;5.134;2022-09-09T04:21:37;8.73;;;6.38;;
60372;SDS011;46216;52.220;5.134;2022-09-09T04:24:04;7.82;;;6.55;;
60372;SDS011;46216;52.220;5.134;2022-09-09T04:26:30;7.90;;;6.30;;
60372;SDS011;46216;52.220;5.134;2022-09-09T04:28:56;8.25;;;6.07;;
60372;SDS011;46216;52.220;5.134;2022-09-09T04:31:22;11.05;;;6.63;;
60372;SDS011;46216;52.220;5.134;2022-09-09T04:33:49;9.13;;;6.50;;
60372;SDS011;46216;52.220;5.134;2022-09-09T04:36:17;12.32;;;6.47;;
60372;SDS011;46216;52.220;5.134;2022-09-09T04:38:44;7.80;;;6.43;;
60372;SDS011;46216;52.220;5.134;2022-09-09T04:41:10;8.50;;;6.22;;
60372;SDS011;46216;52.220;5.134;2022-09-09T04:43:36;8.23;;;6.63;;
60372;SDS011;46216;52.220;5.134;2022-09-09T04:46:02;8.07;;;5.85;;
60372;SDS011;46216;52.220;5.134;2022-09-09T04:48:28;8.88;;;5.53;;
60372;SDS011;46216;52.220;5.134;2022-09-09T04:51:03;9.02;;;5.35;;
60372;SDS011;46216;52.220;5.134;2022-09-09T04:53:30;8.13;;;5.25;;
60372;SDS011;46216;52.220;5.134;2022-09-09T04:56:13;8.45;;;5.82;;
60372;SDS011;46216;52.220;5.134;2022-09-09T04:58:39;9.23;;;5.05;;
60372;SDS011;46216;52.220;5.134;2022-09-09T05:01:18;10.52;;;5.93;;
60372;SDS011;46216;52.220;5.134;2022-09-09T05:03:47;6.95;;;5.40;;
60372;SDS011;46216;52.220;5.134;2022-09-09T05:06:13;7.53;;;5.20;;
60372;SDS011;46216;52.220;5.134;2022-09-09T05:08:41;7.43;;;5.05;;
60372;SDS011;46216;52.220;5.134;2022-09-09T05:13:42;11.60;;;5.45;;
60372;SDS011;46216;52.220;5.134;2022-09-09T05:16:09;12.32;;;5.72;;
60372;SDS011;46216;52.220;5.134;2022-09-09T05:18:36;7.53;;;5.50;;
60372;SDS011;46216;52.220;5.134;2022-09-09T05:21:02;7.43;;;5.20;;
60372;SDS011;46216;52.220;5.134;2022-09-09T05:23:27;10.23;;;5.80;;
60372;SDS011;46216;52.220;5.134;2022-09-09T05:25:56;11.82;;;5.60;;
60372;SDS011;46216;52.220;5.134;2022-09-09T05:28:22;8.13;;;5.20;;
60372;SDS011;46216;52.220;5.134;2022-09-09T05:31:02;8.68;;;4.82;;
60372;SDS011;46216;52.220;5.134;2022-09-09T05:33:30;7.05;;;5.00;;
60372;SDS011;46216;52.220;5.134;2022-09-09T05:36:00;8.32;;;5.15;;
60372;SDS011;46216;52.220;5.134;2022-09-09T05:38:29;7.63;;;5.10;;
60372;SDS011;46216;52.220;5.134;2022-09-09T05:40:55;9.60;;;4.70;;
60372;SDS011;46216;52.220;5.134;2022-09-09T05:43:22;8.18;;;5.40;;
60372;SDS011;46216;52.220;5.134;2022-09-09T05:45:48;9.65;;;5.38;;
60372;SDS011;46216;52.220;5.134;2022-09-09T05:48:16;7.90;;;5.05;;
60372;SDS011;46216;52.220;5.134;2022-09-09T05:50:42;9.10;;;5.05;;
60372;SDS011;46216;52.220;5.134;2022-09-09T05:53:08;7.85;;;4.88;;
60372;SDS011;46216;52.220;5.134;2022-09-09T05:55:35;13.00;;;5.18;;
60372;SDS011;46216;52.220;5.134;2022-09-09T05:58:00;6.82;;;4.70;;
60372;SDS011;46216;52.220;5.134;2022-09-09T06:00:26;7.05;;;4.32;;
60372;SDS011;46216;52.220;5.134;2022-09-09T06:02:51;9.80;;;5.00;;
60372;SDS011;46216;52.220;5.134;2022-09-09T06:05:18;10.13;;;4.97;;
60372;SDS011;46216;52.220;5.134;2022-09-09T06:07:43;9.50;;;4.75;;
60372;SDS011;46216;52.220;5.134;2022-09-09T06:10:09;5.95;;;4.40;;
60372;SDS011;46216;52.220;5.134;2022-09-09T06:12:35;9.63;;;4.28;;
60372;SDS011;46216;52.220;5.134;2022-09-09T06:15:01;8.43;;;4.78;;
60372;SDS011;46216;52.220;5.134;2022-09-09T06:17:26;11.40;;;4.47;;
60372;SDS011;46216;52.220;5.134;2022-09-09T06:19:52;8.02;;;4.47;;
60372;SDS011;46216;52.220;5.134;2022-09-09T06:22:17;9.93;;;4.72;;
60372;SDS011;46216;52.220;5.134;2022-09-09T06:24:43;10.77;;;4.57;;
60372;SDS011;46216;52.220;5.134;2022-09-09T06:27:09;10.57;;;4.35;;
60372;SDS011;46216;52.220;5.134;2022-09-09T06:29:35;9.85;;;4.40;;
60372;SDS011;46216;52.220;5.134;2022-09-09T06:32:01;8.95;;;4.43;;
60372;SDS011;46216;52.220;5.134;2022-09-09T06:34:27;7.88;;;4.28;;
60372;SDS011;46216;52.220;5.134;2022-09-09T06:36:53;8.25;;;4.25;;
60372;SDS011;46216;52.220;5.134;2022-09-09T06:39:18;12.85;;;4.40;;
60372;SDS011;46216;52.220;5.134;2022-09-09T06:41:44;9.60;;;4.30;;
60372;SDS011;46216;52.220;5.134;2022-09-09T06:44:09;8.73;;;3.88;;
60372;SDS011;46216;52.220;5.134;2022-09-09T06:46:36;8.80;;;3.90;;
60372;SDS011;46216;52.220;5.134;2022-09-09T06:49:03;6.30;;;3.55;;
60372;SDS011;46216;52.220;5.134;2022-09-09T06:51:29;9.75;;;3.90;;
60372;SDS011;46216;52.220;5.134;2022-09-09T06:53:57;8.35;;;3.90;;
60372;SDS011;46216;52.220;5.134;2022-09-09T06:58:53;10.43;;;3.15;;
60372;SDS011;46216;52.220;5.134;2022-09-09T07:01:23;8.32;;;3.45;;
60372;SDS011;46216;52.220;5.134;2022-09-09T07:03:51;9.95;;;3.65;;
60372;SDS011;46216;52.220;5.134;2022-09-09T07:06:19;8.35;;;3.40;;
60372;SDS011;46216;52.220;5.134;2022-09-09T07:08:49;8.15;;;3.53;;
60372;SDS011;46216;52.220;5.134;2022-09-09T07:11:19;8.43;;;3.60;;
60372;SDS011;46216;52.220;5.134;2022-09-09T07:13:46;9.88;;;3.58;;
60372;SDS011;46216;52.220;5.134;2022-09-09T07:16:15;12.60;;;3.63;;
60372;SDS011;46216;52.220;5.134;2022-09-09T07:18:42;12.10;;;4.10;;
60372;SDS011;46216;52.220;5.134;2022-09-09T07:21:09;7.25;;;3.10;;
60372;SDS011;46216;52.220;5.134;2022-09-09T07:23:36;9.88;;;4.10;;
60372;SDS011;46216;52.220;5.134;2022-09-09T07:26:06;9.02;;;3.90;;
60372;SDS011;46216;52.220;5.134;2022-09-09T07:28:33;9.88;;;3.72;;
60372;SDS011;46216;52.220;5.134;2022-09-09T07:31:00;10.52;;;3.67;;
60372;SDS011;46216;52.220;5.134;2022-09-09T07:33:27;10.48;;;3.58;;
60372;SDS011;46216;52.220;5.134;2022-09-09T07:36:01;8.52;;;3.78;;
60372;SDS011;46216;52.220;5.134;2022-09-09T07:38:30;10.70;;;4.20;;
60372;SDS011;46216;52.220;5.134;2022-09-09T07:41:03;12.52;;;3.90;;
60372;SDS011;46216;52.220;5.134;2022-09-09T07:43:34;7.88;;;3.85;;
60372;SDS011;46216;52.220;5.134;2022-09-09T07:45:59;10.25;;;3.50;;
60372;SDS011;46216;52.220;5.134;2022-09-09T07:48:28;10.85;;;4.25;;
60372;SDS011;46216;52.220;5.134;2022-09-09T07:51:02;11.15;;;3.90;;
60372;SDS011;46216;52.220;5.134;2022-09-09T07:53:32;11.30;;;3.83;;
60372;SDS011;46216;52.220;5.134;2022-09-09T07:56:04;10.40;;;4.30;;
60372;SDS011;46216;52.220;5.134;2022-09-09T07:58:30;12.48;;;4.40;;
60372;SDS011;46216;52.220;5.134;2022-09-09T08:00:56;9.50;;;3.67;;
60372;SDS011;46216;52.220;5.134;2022-09-09T08:03:22;10.65;;;3.83;;
60372;SDS011;46216;52.220;5.134;2022-09-09T08:05:48;9.27;;;3.60;;
60372;SDS011;46216;52.220;5.134;2022-09-09T08:08:14;9.07;;;3.85;;
60372;SDS011;46216;52.220;5.134;2022-09-09T08:10:40;8.68;;;3.75;;
60372;SDS011;46216;52.220;5.134;2022-09-09T08:13:05;11.25;;;3.67;;
60372;SDS011;46216;52.220;5.134;2022-09-09T08:15:31;8.63;;;3.60;;
60372;SDS011;46216;52.220;5.134;2022-09-09T08:17:57;9.68;;;3.88;;
60372;SDS011;46216;52.220;5.134;2022-09-09T08:20:22;10.32;;;3.95;;
60372;SDS011;46216;52.220;5.134;2022-09-09T08:22:48;6.45;;;3.40;;
60372;SDS011;46216;52.220;5.134;2022-09-09T08:25:15;9.13;;;3.90;;
60372;SDS011;46216;52.220;5.134;2022-09-09T08:27:40;9.05;;;3.42;;
60372;SDS011;46216;52.220;5.134;2022-09-09T08:30:05;8.45;;;3.85;;
60372;SDS011;46216;52.220;5.134;2022-09-09T08:32:31;9.93;;;3.67;;
60372;SDS011;46216;52.220;5.134;2022-09-09T08:34:57;9.02;;;3.50;;
60372;SDS011;46216;52.220;5.134;2022-09-09T08:37:22;7.13;;;3.13;;
60372;SDS011;46216;52.220;5.134;2022-09-09T08:39:47;6.28;;;3.20;;
60372;SDS011;46216;52.220;5.134;2022-09-09T08:50:28;7.95;;;2.72;;
60372;SDS011;46216;52.220;5.134;2022-09-09T08:58:02;7.20;;;2.80;;
60372;SDS011;46216;52.220;5.134;2022-09-09T09:00:44;7.45;;;2.83;;
60372;SDS011;46216;52.220;5.134;2022-09-09T09:11:56;8.98;;;3.10;;
60372;SDS011;46216;52.220;5.134;2022-09-09T09:14:26;10.13;;;2.72;;
60372;SDS011;46216;52.220;5.134;2022-09-09T09:19:30;7.30;;;2.80;;
60372;SDS011;46216;52.220;5.134;2022-09-09T09:27:21;10.90;;;2.75;;
60372;SDS011;46216;52.220;5.134;2022-09-09T09:29:55;7.00;;;2.55;;
60372;SDS011;46216;52.220;5.134;2022-09-09T09:32:23;7.68;;;3.10;;
60372;SDS011;46216;52.220;5.134;2022-09-09T09:34:51;10.85;;;3.13;;
60372;SDS011;46216;52.220;5.134;2022-09-09T09:37:31;11.43;;;3.03;;
60372;SDS011;46216;52.220;5.134;2022-09-09T09:40:19;7.20;;;2.80;;
60372;SDS011;46216;52.220;5.134;2022-09-09T09:42:50;7.30;;;3.28;;
60372;SDS011;46216;52.220;5.134;2022-09-09T09:45:34;10.93;;;2.97;;
60372;SDS011;46216;52.220;5.134;2022-09-09T09:48:06;11.38;;;2.90;;
60372;SDS011;46216;52.220;5.134;2022-09-09T09:50:34;9.85;;;2.70;;
60372;SDS011;46216;52.220;5.134;2022-09-09T09:53:01;8.15;;;2.97;;
60372;SDS011;46216;52.220;5.134;2022-09-09T09:55:29;8.50;;;2.60;;
60372;SDS011;46216;52.220;5.134;2022-09-09T09:58:03;7.40;;;2.58;;
60372;SDS011;46216;52.220;5.134;2022-09-09T10:00:30;10.07;;;2.80;;
60372;SDS011;46216;52.220;5.134;2022-09-09T10:02:57;8.00;;;2.83;;
60372;SDS011;46216;52.220;5.134;2022-09-09T10:05:26;7.60;;;2.47;;
60372;SDS011;46216;52.220;5.134;2022-09-09T10:08:12;7.93;;;2.67;;
60372;SDS011;46216;52.220;5.134;2022-09-09T10:10:45;8.95;;;2.78;;
60372;SDS011;46216;52.220;5.134;2022-09-09T10:27:27;5.53;;;2.38;;
60372;SDS011;46216;52.220;5.134;2022-09-09T10:35:40;9.05;;;3.10;;
60372;SDS011;46216;52.220;5.134;2022-09-09T10:38:17;7.47;;;3.00;;
60372;SDS011;46216;52.220;5.134;2022-09-09T10:40:58;10.55;;;3.20;;
60372;SDS011;46216;52.220;5.134;2022-09-09T11:00:05;8.75;;;3.10;;
60372;SDS011;46216;52.220;5.134;2022-09-09T11:02:39;12.98;;;3.22;;
60372;SDS011;46216;52.220;5.134;2022-09-09T11:07:57;8.55;;;2.65;;
60372;SDS011;46216;52.220;5.134;2022-09-09T11:10:36;5.60;;;2.50;;
60372;SDS011;46216;52.220;5.134;2022-09-09T11:13:17;5.85;;;2.45;;
60372;SDS011;46216;52.220;5.134;2022-09-09T11:15:50;6.03;;;2.50;;
60372;SDS011;46216;52.220;5.134;2022-09-09T11:18:36;7.22;;;2.50;;
60372;SDS011;46216;52.220;5.134;2022-09-09T11:21:04;5.95;;;2.50;;
60372;SDS011;46216;52.220;5.134;2022-09-09T11:26:07;8.32;;;2.55;;
60372;SDS011;46216;52.220;5.134;2022-09-09T11:28:44;11.45;;;2.90;;
60372;SDS011;46216;52.220;5.134;2022-09-09T11:31:41;4.60;;;2.53;;
60372;SDS011;46216;52.220;5.134;2022-09-09T11:36:56;8.32;;;2.80;;
60372;SDS011;46216;52.220;5.134;2022-09-09T11:39:37;7.28;;;3.45;;
60372;SDS011;46216;52.220;5.134;2022-09-09T11:42:08;8.38;;;2.88;;
60372;SDS011;46216;52.220;5.134;2022-09-09T11:44:43;7.70;;;2.50;;
60372;SDS011;46216;52.220;5.134;2022-09-09T11:49:55;7.68;;;2.60;;
60372;SDS011;46216;52.220;5.134;2022-09-09T11:52:39;5.72;;;2.13;;
60372;SDS011;46216;52.220;5.134;2022-09-09T12:08:54;6.32;;;3.08;;
60372;SDS011;46216;52.220;5.134;2022-09-09T12:11:24;9.20;;;3.10;;
60372;SDS011;46216;52.220;5.134;2022-09-09T12:13:54;6.60;;;3.30;;
60372;SDS011;46216;52.220;5.134;2022-09-09T12:16:34;6.18;;;3.42;;
60372;SDS011;46216;52.220;5.134;2022-09-09T12:24:31;7.05;;;2.92;;
60372;SDS011;46216;52.220;5.134;2022-09-09T12:27:18;7.07;;;3.70;;
60372;SDS011;46216;52.220;5.134;2022-09-09T12:29:57;5.97;;;3.50;;
60372;SDS011;46216;52.220;5.134;2022-09-09T12:32:29;5.65;;;3.08;;
60372;SDS011;46216;52.220;5.134;2022-09-09T12:34:56;8.05;;;3.67;;
60372;SDS011;46216;52.220;5.134;2022-09-09T12:42:49;7.25;;;3.75;;
60372;SDS011;46216;52.220;5.134;2022-09-09T12:45:16;8.93;;;3.88;;
60372;SDS011;46216;52.220;5.134;2022-09-09T12:50:26;7.18;;;3.65;;
60372;SDS011;46216;52.220;5.134;2022-09-09T12:52:57;6.43;;;3.33;;
60372;SDS011;46216;52.220;5.134;2022-09-09T12:55:31;5.10;;;3.30;;
60372;SDS011;46216;52.220;5.134;2022-09-09T12:58:03;6.65;;;3.60;;
60372;SDS011;46216;52.220;5.134;2022-09-09T13:00:31;7.03;;;3.20;;
60372;SDS011;46216;52.220;5.134;2022-09-09T13:02:59;5.68;;;3.45;;
60372;SDS011;46216;52.220;5.134;2022-09-09T13:05:36;8.48;;;3.47;;
60372;SDS011;46216;52.220;5.134;2022-09-09T13:08:05;8.40;;;3.20;;
60372;SDS011;46216;52.220;5.134;2022-09-09T13:10:41;5.93;;;3.50;;
60372;SDS011;46216;52.220;5.134;2022-09-09T13:13:23;6.25;;;3.40;;
60372;SDS011;46216;52.220;5.134;2022-09-09T13:15:52;7.20;;;3.33;;
60372;SDS011;46216;52.220;5.134;2022-09-09T13:18:21;6.97;;;4.00;;
60372;SDS011;46216;52.220;5.134;2022-09-09T13:20:49;7.55;;;3.70;;
60372;SDS011;46216;52.220;5.134;2022-09-09T13:23:15;7.43;;;3.58;;
60372;SDS011;46216;52.220;5.134;2022-09-09T13:25:56;6.18;;;3.28;;
60372;SDS011;46216;52.220;5.134;2022-09-09T13:28:24;5.53;;;3.33;;
60372;SDS011;46216;52.220;5.134;2022-09-09T13:31:04;5.82;;;3.58;;
60372;SDS011;46216;52.220;5.134;2022-09-09T13:33:43;5.82;;;3.35;;
60372;SDS011;46216;52.220;5.134;2022-09-09T13:36:09;7.80;;;3.40;;
60372;SDS011;46216;52.220;5.134;2022-09-09T13:38:38;6.20;;;3.50;;
60372;SDS011;46216;52.220;5.134;2022-09-09T13:41:41;7.53;;;3.47;;
60372;SDS011;46216;52.220;5.134;2022-09-09T13:44:22;6.47;;;3.50;;
60372;SDS011;46216;52.220;5.134;2022-09-09T13:49:28;7.45;;;3.30;;
60372;SDS011;46216;52.220;5.134;2022-09-09T13:52:05;4.95;;;2.83;;
60372;SDS011;46216;52.220;5.134;2022-09-09T13:54:35;4.57;;;2.95;;
60372;SDS011;46216;52.220;5.134;2022-09-09T13:57:01;5.70;;;3.08;;
60372;SDS011;46216;52.220;5.134;2022-09-09T13:59:27;5.97;;;2.80;;
60372;SDS011;46216;52.220;5.134;2022-09-09T14:01:52;5.72;;;3.17;;
60372;SDS011;46216;52.220;5.134;2022-09-09T14:04:18;6.53;;;3.50;;
60372;SDS011;46216;52.220;5.134;2022-09-09T14:06:47;6.00;;;3.28;;
60372;SDS011;46216;52.220;5.134;2022-09-09T14:09:14;5.05;;;2.65;;
60372;SDS011;46216;52.220;5.134;2022-09-09T14:11:41;4.82;;;2.47;;
60372;SDS011;46216;52.220;5.134;2022-09-09T14:14:07;5.30;;;2.65;;
60372;SDS011;46216;52.220;5.134;2022-09-09T14:16:34;6.70;;;2.70;;
60372;SDS011;46216;52.220;5.134;2022-09-09T14:18:59;5.05;;;2.70;;
60372;SDS011;46216;52.220;5.134;2022-09-09T14:21:25;6.88;;;3.00;;
60372;SDS011;46216;52.220;5.134;2022-09-09T14:23:51;5.43;;;2.80;;
60372;SDS011;46216;52.220;5.134;2022-09-09T14:26:18;5.93;;;2.78;;
60372;SDS011;46216;52.220;5.134;2022-09-09T14:28:45;6.05;;;3.08;;
60372;SDS011;46216;52.220;5.134;2022-09-09T14:31:11;6.45;;;3.08;;
60372;SDS011;46216;52.220;5.134;2022-09-09T14:33:38;7.10;;;2.88;;
60372;SDS011;46216;52.220;5.134;2022-09-09T14:36:04;4.47;;;2.60;;
60372;SDS011;46216;52.220;5.134;2022-09-09T14:38:30;6.90;;;2.75;;
60372;SDS011;46216;52.220;5.134;2022-09-09T14:40:58;5.07;;;2.80;;
60372;SDS011;46216;52.220;5.134;2022-09-09T14:43:24;4.93;;;2.33;;
60372;SDS011;46216;52.220;5.134;2022-09-09T14:45:49;3.95;;;2.45;;
60372;SDS011;46216;52.220;5.134;2022-09-09T14:48:16;6.65;;;3.00;;
60372;SDS011;46216;52.220;5.134;2022-09-09T14:50:41;4.93;;;2.40;;
60372;SDS011;46216;52.220;5.134;2022-09-09T14:53:07;5.25;;;2.47;;
60372;SDS011;46216;52.220;5.134;2022-09-09T14:55:33;4.55;;;2.70;;
60372;SDS011;46216;52.220;5.134;2022-09-09T14:57:59;5.38;;;2.58;;
60372;SDS011;46216;52.220;5.134;2022-09-09T15:00:24;6.05;;;2.88;;
60372;SDS011;46216;52.220;5.134;2022-09-09T15:02:51;4.22;;;2.70;;
60372;SDS011;46216;52.220;5.134;2022-09-09T15:05:18;6.57;;;2.20;;
60372;SDS011;46216;52.220;5.134;2022-09-09T15:07:49;5.80;;;2.13;;
60372;SDS011;46216;52.220;5.134;2022-09-09T15:10:14;2.72;;;1.50;;
60372;SDS011;46216;52.220;5.134;2022-09-09T15:12:40;1.92;;;0.90;;
60372;SDS011;46216;52.220;5.134;2022-09-09T15:15:06;4.15;;;1.10;;
60372;SDS011;46216;52.220;5.134;2022-09-09T15:17:32;2.38;;;1.10;;
60372;SDS011;46216;52.220;5.134;2022-09-09T15:19:58;4.68;;;1.20;;
60372;SDS011;46216;52.220;5.134;2022-09-09T15:22:23;2.70;;;1.00;;
60372;SDS011;46216;52.220;5.134;2022-09-09T15:24:49;3.47;;;1.58;;
60372;SDS011;46216;52.220;5.134;2022-09-09T15:27:15;4.57;;;1.67;;
60372;SDS011;46216;52.220;5.134;2022-09-09T15:29:40;3.05;;;1.40;;
60372;SDS011;46216;52.220;5.134;2022-09-09T15:32:06;4.72;;;1.65;;
60372;SDS011;46216;52.220;5.134;2022-09-09T15:34:32;4.15;;;1.85;;
60372;SDS011;46216;52.220;5.134;2022-09-09T15:36:57;4.28;;;1.50;;
60372;SDS011;46216;52.220;5.134;2022-09-09T15:39:24;4.75;;;1.80;;
60372;SDS011;46216;52.220;5.134;2022-09-09T15:41:50;3.28;;;1.80;;
60372;SDS011;46216;52.220;5.134;2022-09-09T15:44:16;5.43;;;2.00;;
60372;SDS011;46216;52.220;5.134;2022-09-09T15:46:45;5.35;;;2.03;;
60372;SDS011;46216;52.220;5.134;2022-09-09T15:49:15;5.28;;;2.20;;
60372;SDS011;46216;52.220;5.134;2022-09-09T15:51:50;6.95;;;2.50;;
60372;SDS011;46216;52.220;5.134;2022-09-09T15:54:18;4.05;;;2.05;;
60372;SDS011;46216;52.220;5.134;2022-09-09T15:56:45;5.32;;;2.17;;
60372;SDS011;46216;52.220;5.134;2022-09-09T15:59:15;6.85;;;2.35;;
60372;SDS011;46216;52.220;5.134;2022-09-09T16:01:40;4.05;;;2.20;;
60372;SDS011;46216;52.220;5.134;2022-09-09T16:04:07;5.28;;;2.00;;
60372;SDS011;46216;52.220;5.134;2022-09-09T16:06:32;4.30;;;2.17;;
60372;SDS011;46216;52.220;5.134;2022-09-09T16:09:02;5.65;;;1.80;;
60372;SDS011;46216;52.220;5.134;2022-09-09T16:11:30;4.15;;;2.00;;
60372;SDS011;46216;52.220;5.134;2022-09-09T16:13:57;4.18;;;1.90;;
60372;SDS011;46216;52.220;5.134;2022-09-09T16:16:24;5.18;;;2.15;;
60372;SDS011;46216;52.220;5.134;2022-09-09T16:19:02;3.58;;;1.90;;
60372;SDS011;46216;52.220;5.134;2022-09-09T16:21:30;3.22;;;1.40;;
60372;SDS011;46216;52.220;5.134;2022-09-09T16:23:58;5.28;;;1.90;;
60372;SDS011;46216;52.220;5.134;2022-09-09T16:26:26;3.38;;;1.55;;
60372;SDS011;46216;52.220;5.134;2022-09-09T16:28:52;4.88;;;1.90;;
60372;SDS011;46216;52.220;5.134;2022-09-09T16:31:19;4.43;;;1.83;;
60372;SDS011;46216;52.220;5.134;2022-09-09T16:33:46;5.10;;;1.73;;
60372;SDS011;46216;52.220;5.134;2022-09-09T16:36:14;3.35;;;1.52;;
60372;SDS011;46216;52.220;5.134;2022-09-09T16:38:41;2.90;;;1.52;;
60372;SDS011;46216;52.220;5.134;2022-09-09T16:41:08;3.47;;;1.58;;
60372;SDS011;46216;52.220;5.134;2022-09-09T16:43:35;5.10;;;1.70;;
60372;SDS011;46216;52.220;5.134;2022-09-09T16:46:02;4.72;;;1.85;;
60372;SDS011;46216;52.220;5.134;2022-09-09T16:48:32;3.60;;;1.75;;
60372;SDS011;46216;52.220;5.134;2022-09-09T16:51:05;5.75;;;1.90;;
60372;SDS011;46216;52.220;5.134;2022-09-09T16:53:32;4.50;;;1.88;;
60372;SDS011;46216;52.220;5.134;2022-09-09T16:56:04;3.65;;;2.03;;
60372;SDS011;46216;52.220;5.134;2022-09-09T16:58:30;6.88;;;2.63;;
60372;SDS011;46216;52.220;5.134;2022-09-09T17:00:59;6.07;;;2.30;;
60372;SDS011;46216;52.220;5.134;2022-09-09T17:03:27;7.45;;;2.40;;
60372;SDS011;46216;52.220;5.134;2022-09-09T17:05:52;5.40;;;2.35;;
60372;SDS011;46216;52.220;5.134;2022-09-09T17:08:18;8.57;;;2.50;;
60372;SDS011;46216;52.220;5.134;2022-09-09T17:10:43;7.97;;;2.53;;
60372;SDS011;46216;52.220;5.134;2022-09-09T17:13:09;6.43;;;2.40;;
60372;SDS011;46216;52.220;5.134;2022-09-09T17:15:38;5.25;;;2.50;;
60372;SDS011;46216;52.220;5.134;2022-09-09T17:18:07;9.48;;;2.83;;
60372;SDS011;46216;52.220;5.134;2022-09-09T17:20:37;5.53;;;2.97;;
60372;SDS011;46216;52.220;5.134;2022-09-09T17:23:06;6.60;;;3.10;;
60372;SDS011;46216;52.220;5.134;2022-09-09T17:25:35;6.90;;;3.05;;
60372;SDS011;46216;52.220;5.134;2022-09-09T17:28:01;6.72;;;3.40;;